Time;durP1;ratioP1;P1;durP2;ratioP2;P2;SDS_P1;SDS_P2;PMS_P1;PMS_P2;Temp;Humidity;BMP_temperature;BMP_pressure;BME280_temperature;BME280_humidity;BME280_pressure;Samples;Min_cycle;Max_cycle;Signal;HPM_P1;HPM_P2
2022/11/25 00:01:13;;;;;;;8.05;6.25;;;;;;;;;;4980135;28;20455;-72
2022/11/25 00:03:40;;;;;;;10.90;7.90;;;;;;;;;;4981304;28;20058;-72
2022/11/25 00:06:08;;;;;;;12.55;8.10;;;;;;;;;;4981287;28;20053;-68
2022/11/25 00:08:34;;;;;;;15.40;7.40;;;;;;;;;;4981537;28;20050;-68
2022/11/25 00:11:01;;;;;;;12.27;8.73;;;;;;;;;;4980819;28;20116;-68
2022/11/25 00:13:26;;;;;;;14.57;7.88;;;;;;;;;;4995699;28;20054;-67
2022/11/25 00:15:51;;;;;;;12.05;8.48;;;;;;;;;;4981312;28;20073;-68
2022/11/25 00:18:17;;;;;;;12.27;8.13;;;;;;;;;;4981560;28;20460;-67
2022/11/25 00:20:42;;;;;;;11.07;7.28;;;;;;;;;;4980146;28;20096;-68
2022/11/25 00:23:08;;;;;;;10.95;7.28;;;;;;;;;;4980951;28;20058;-68
2022/11/25 00:25:33;;;;;;;9.82;7.53;;;;;;;;;;4980672;28;20109;-67
2022/11/25 00:27:59;;;;;;;13.57;7.50;;;;;;;;;;4981429;28;20411;-65
2022/11/25 00:30:24;;;;;;;16.05;8.68;;;;;;;;;;4980691;28;20160;-68
2022/11/25 00:32:49;;;;;;;11.13;8.10;;;;;;;;;;4979493;28;20129;-66
2022/11/25 00:35:15;;;;;;;13.68;8.18;;;;;;;;;;4978770;28;20503;-66
2022/11/25 00:37:40;;;;;;;13.52;7.90;;;;;;;;;;4980863;28;20053;-66
2022/11/25 00:40:06;;;;;;;11.80;7.88;;;;;;;;;;4980813;28;20415;-66
2022/11/25 00:45:18;;;;;;;13.50;7.90;;;;;;;;;;4978034;28;20408;-67
2022/11/25 00:47:43;;;;;;;10.52;8.32;;;;;;;;;;4981168;28;20713;-67
2022/11/25 00:50:09;;;;;;;14.40;8.25;;;;;;;;;;4995880;28;20149;-67
2022/11/25 00:52:35;;;;;;;15.95;8.05;;;;;;;;;;4979355;28;20050;-67
2022/11/25 00:55:02;;;;;;;11.80;8.27;;;;;;;;;;4979075;28;20137;-67
2022/11/25 00:57:28;;;;;;;11.10;8.30;;;;;;;;;;4980125;28;20089;-67
2022/11/25 00:59:53;;;;;;;13.40;8.02;;;;;;;;;;4981868;28;20050;-66
2022/11/25 01:02:20;;;;;;;10.88;8.18;;;;;;;;;;4983474;28;20042;-65
2022/11/25 01:04:46;;;;;;;12.75;9.10;;;;;;;;;;4984120;28;20054;-66
2022/11/25 01:07:14;;;;;;;15.27;9.80;;;;;;;;;;4982643;28;20519;-66
2022/11/25 01:09:39;;;;;;;19.92;11.20;;;;;;;;;;4984354;28;20042;-66
2022/11/25 01:12:06;;;;;;;16.98;11.13;;;;;;;;;;4983454;28;20046;-67
2022/11/25 01:14:33;;;;;;;16.63;10.38;;;;;;;;;;4983666;28;20060;-67
2022/11/25 01:16:58;;;;;;;16.50;10.88;;;;;;;;;;4965674;28;20043;-67
2022/11/25 01:19:24;;;;;;;19.13;11.18;;;;;;;;;;4981830;28;20060;-68
2022/11/25 01:21:49;;;;;;;18.17;11.30;;;;;;;;;;4982849;28;20129;-66
2022/11/25 01:24:15;;;;;;;20.80;12.30;;;;;;;;;;4981442;28;20064;-67
2022/11/25 01:26:42;;;;;;;17.48;10.95;;;;;;;;;;4981174;28;20050;-66
2022/11/25 01:29:13;;;;;;;20.85;11.70;;;;;;;;;;4983428;28;20487;-67
2022/11/25 01:31:38;;;;;;;18.58;11.00;;;;;;;;;;4982805;28;20395;-67
2022/11/25 01:34:07;;;;;;;19.08;11.18;;;;;;;;;;4983288;28;20646;-67
2022/11/25 01:36:34;;;;;;;20.25;12.02;;;;;;;;;;4999302;28;20043;-67
2022/11/25 01:39:02;;;;;;;19.73;11.52;;;;;;;;;;4981290;28;20050;-67
2022/11/25 01:41:29;;;;;;;19.42;11.50;;;;;;;;;;4984033;28;20057;-67
2022/11/25 01:44:16;;;;;;;19.15;11.73;;;;;;;;;;4999597;28;20057;-67
2022/11/25 01:47:13;;;;;;;16.65;10.48;;;;;;;;;;4984279;28;20050;-67
2022/11/25 01:50:00;;;;;;;19.13;10.77;;;;;;;;;;4982209;28;20042;-67
2022/11/25 01:52:30;;;;;;;24.95;12.77;;;;;;;;;;4983914;28;20046;-67
2022/11/25 01:55:09;;;;;;;25.02;12.98;;;;;;;;;;4982011;28;20061;-67
2022/11/25 01:57:40;;;;;;;19.30;10.73;;;;;;;;;;4982358;28;20047;-67
2022/11/25 02:00:08;;;;;;;19.23;12.02;;;;;;;;;;4981254;28;20507;-67
2022/11/25 02:02:43;;;;;;;21.45;11.70;;;;;;;;;;4983028;28;20354;-68
2022/11/25 02:05:11;;;;;;;21.08;12.27;;;;;;;;;;4984045;28;20050;-66
2022/11/25 02:07:40;;;;;;;18.23;10.75;;;;;;;;;;4982279;28;20145;-67
2022/11/25 02:10:18;;;;;;;19.27;11.25;;;;;;;;;;4981640;28;20042;-67
2022/11/25 02:12:45;;;;;;;18.75;11.05;;;;;;;;;;4982691;28;20054;-67
2022/11/25 02:15:11;;;;;;;18.50;10.07;;;;;;;;;;4983787;28;20046;-67
2022/11/25 02:17:37;;;;;;;16.33;10.20;;;;;;;;;;4982166;28;20054;-67
2022/11/25 02:20:03;;;;;;;19.60;9.70;;;;;;;;;;4981643;28;20061;-67
2022/11/25 02:22:40;;;;;;;14.80;9.18;;;;;;;;;;4981601;28;20046;-67
2022/11/25 02:25:12;;;;;;;12.35;7.18;;;;;;;;;;4981384;28;20046;-67
2022/11/25 02:27:38;;;;;;;13.93;9.32;;;;;;;;;;4983439;28;20137;-67
2022/11/25 02:30:04;;;;;;;13.48;8.98;;;;;;;;;;4981556;28;20463;-67
2022/11/25 02:32:29;;;;;;;15.05;8.98;;;;;;;;;;4997154;28;20057;-67
2022/11/25 02:34:55;;;;;;;12.55;8.32;;;;;;;;;;4980764;28;20050;-67
2022/11/25 02:37:22;;;;;;;13.60;8.80;;;;;;;;;;4982041;28;20053;-67
2022/11/25 02:39:50;;;;;;;16.90;9.15;;;;;;;;;;4978915;28;20133;-67
2022/11/25 02:42:18;;;;;;;12.88;9.02;;;;;;;;;;4981451;28;20050;-67
2022/11/25 02:44:46;;;;;;;16.45;8.77;;;;;;;;;;4995963;28;20050;-68
2022/11/25 02:47:11;;;;;;;11.82;8.45;;;;;;;;;;4981591;28;20057;-67
2022/11/25 02:49:37;;;;;;;16.88;9.27;;;;;;;;;;4980963;28;20054;-67
2022/11/25 02:52:04;;;;;;;13.32;8.13;;;;;;;;;;4981728;28;20141;-67
2022/11/25 02:54:29;;;;;;;13.68;8.48;;;;;;;;;;4980820;28;20125;-67
2022/11/25 02:56:54;;;;;;;13.52;8.57;;;;;;;;;;4980474;28;20411;-67
2022/11/25 02:59:20;;;;;;;14.13;7.80;;;;;;;;;;4997369;28;20101;-67
2022/11/25 03:01:46;;;;;;;13.40;8.32;;;;;;;;;;4981171;28;20133;-67
2022/11/25 03:04:12;;;;;;;13.60;8.77;;;;;;;;;;4997905;28;20538;-68
2022/11/25 03:06:37;;;;;;;15.68;9.07;;;;;;;;;;4996904;28;20042;-68
2022/11/25 03:09:05;;;;;;;12.60;7.72;;;;;;;;;;4980056;28;20050;-69
2022/11/25 03:14:14;;;;;;;13.68;7.75;;;;;;;;;;4981499;28;20142;-68
2022/11/25 03:16:41;;;;;;;11.10;6.95;;;;;;;;;;4980180;28;20093;-67
2022/11/25 03:19:07;;;;;;;11.98;7.53;;;;;;;;;;4980472;28;20137;-67
2022/11/25 03:21:34;;;;;;;10.93;7.85;;;;;;;;;;4980699;28;20042;-68
2022/11/25 03:23:59;;;;;;;11.15;7.28;;;;;;;;;;4981582;28;20034;-68
2022/11/25 03:26:25;;;;;;;13.23;8.60;;;;;;;;;;4981052;28;20066;-68
2022/11/25 03:28:51;;;;;;;14.05;8.77;;;;;;;;;;4979216;28;20118;-66
2022/11/25 03:31:17;;;;;;;13.05;8.43;;;;;;;;;;4980920;28;20073;-66
2022/11/25 03:33:42;;;;;;;10.05;6.68;;;;;;;;;;4980679;28;20487;-66
2022/11/25 03:36:08;;;;;;;10.90;7.75;;;;;;;;;;4980785;28;20491;-66
2022/11/25 03:38:33;;;;;;;13.10;8.00;;;;;;;;;;4979592;28;20062;-66
2022/11/25 03:40:59;;;;;;;10.68;7.18;;;;;;;;;;4980656;28;20201;-66
2022/11/25 03:43:25;;;;;;;11.32;7.72;;;;;;;;;;4980754;28;20653;-66
2022/11/25 03:45:51;;;;;;;10.73;7.88;;;;;;;;;;4980524;28;21080;-65
2022/11/25 03:48:16;;;;;;;12.25;7.95;;;;;;;;;;4980655;28;20045;-65
2022/11/25 03:50:42;;;;;;;12.80;7.25;;;;;;;;;;4977869;28;20048;-65
2022/11/25 03:53:08;;;;;;;13.15;7.78;;;;;;;;;;4996000;28;20713;-65
2022/11/25 03:55:34;;;;;;;10.70;7.30;;;;;;;;;;4979844;28;20399;-65
2022/11/25 03:58:00;;;;;;;8.82;6.47;;;;;;;;;;4996466;28;20053;-66
2022/11/25 04:00:26;;;;;;;10.88;7.30;;;;;;;;;;4978862;28;20177;-66
2022/11/25 04:02:59;;;;;;;13.02;7.80;;;;;;;;;;4994861;28;20038;-65
2022/11/25 04:05:24;;;;;;;11.88;7.15;;;;;;;;;;4979725;28;20073;-66
2022/11/25 04:07:50;;;;;;;11.73;6.13;;;;;;;;;;4979277;28;20042;-66
2022/11/25 04:10:15;;;;;;;11.55;8.15;;;;;;;;;;4978972;28;20049;-66
2022/11/25 04:12:47;;;;;;;10.93;6.97;;;;;;;;;;4994597;28;20129;-67
2022/11/25 04:15:18;;;;;;;7.78;5.30;;;;;;;;;;4979196;28;20072;-66
2022/11/25 04:17:47;;;;;;;6.07;4.38;;;;;;;;;;4979676;28;20054;-68
2022/11/25 04:20:13;;;;;;;9.35;6.97;;;;;;;;;;4979430;28;20050;-68
2022/11/25 04:22:42;;;;;;;11.90;6.65;;;;;;;;;;4979262;28;20145;-70
2022/11/25 04:25:09;;;;;;;10.40;7.75;;;;;;;;;;4979444;28;20108;-69
2022/11/25 04:27:35;;;;;;;11.23;7.45;;;;;;;;;;4978464;28;20050;-68
2022/11/25 04:30:00;;;;;;;14.02;8.27;;;;;;;;;;4979343;28;20056;-68
2022/11/25 04:32:26;;;;;;;10.68;7.53;;;;;;;;;;4979544;28;20042;-68
2022/11/25 04:34:52;;;;;;;9.45;7.25;;;;;;;;;;4979501;28;20414;-69
2022/11/25 04:37:18;;;;;;;12.55;7.57;;;;;;;;;;4979734;28;20058;-69
2022/11/25 04:39:43;;;;;;;10.73;7.22;;;;;;;;;;4979452;28;20054;-70
2022/11/25 04:42:31;;;;;;;;;;;;;;;;;;4981660;28;20050;-67
2022/11/25 04:44:59;;;;;;;10.85;6.55;;;;;;;;;;4977871;28;19934;-67
2022/11/25 04:47:25;;;;;;;8.35;6.13;;;;;;;;;;4979393;28;20066;-68
2022/11/25 04:49:51;;;;;;;8.82;5.18;;;;;;;;;;4981021;28;20081;-67
2022/11/25 04:52:18;;;;;;;10.93;6.82;;;;;;;;;;4979144;28;20543;-67
2022/11/25 04:54:43;;;;;;;9.40;6.30;;;;;;;;;;4995422;28;20133;-69
2022/11/25 04:57:13;;;;;;;7.90;5.47;;;;;;;;;;4979999;28;20050;-67
2022/11/25 04:59:40;;;;;;;10.48;6.15;;;;;;;;;;4978710;28;20057;-70
2022/11/25 05:02:23;;;;;;;7.68;5.32;;;;;;;;;;4979365;28;20049;-70
2022/11/25 05:05:11;;;;;;;9.13;6.07;;;;;;;;;;4980154;28;20442;-70
2022/11/25 05:07:38;;;;;;;9.88;5.93;;;;;;;;;;4978295;28;20046;-70
2022/11/25 05:10:04;;;;;;;9.52;6.38;;;;;;;;;;4995506;28;20065;-69
2022/11/25 05:12:37;;;;;;;9.20;5.63;;;;;;;;;;4979577;28;20050;-72
2022/11/25 05:15:07;;;;;;;11.27;7.00;;;;;;;;;;4978625;28;20097;-69
2022/11/25 05:17:36;;;;;;;9.13;6.00;;;;;;;;;;4978356;28;20051;-72
2022/11/25 05:20:03;;;;;;;9.07;5.95;;;;;;;;;;4979323;28;20061;-69
2022/11/25 05:22:32;;;;;;;9.27;6.38;;;;;;;;;;4979385;28;20502;-68
2022/11/25 05:24:58;;;;;;;11.18;6.93;;;;;;;;;;4989249;28;20090;-71
2022/11/25 05:27:25;;;;;;;11.80;7.05;;;;;;;;;;4960975;28;20116;-70
2022/11/25 05:29:51;;;;;;;10.90;6.82;;;;;;;;;;4977964;28;20047;-71
2022/11/25 05:32:16;;;;;;;8.57;5.45;;;;;;;;;;4978746;28;20054;-71
2022/11/25 05:34:42;;;;;;;8.98;5.93;;;;;;;;;;4979933;28;20058;-71
2022/11/25 05:37:11;;;;;;;8.05;6.05;;;;;;;;;;4977141;28;20499;-72
2022/11/25 05:39:39;;;;;;;7.70;5.10;;;;;;;;;;4976438;28;20042;-71
2022/11/25 05:42:19;;;;;;;9.73;5.82;;;;;;;;;;4994705;28;20064;-71
2022/11/25 05:44:44;;;;;;;8.40;5.68;;;;;;;;;;4993228;28;20419;-71
2022/11/25 05:47:10;;;;;;;8.15;6.20;;;;;;;;;;4996836;28;20046;-71
2022/11/25 05:49:36;;;;;;;7.88;5.72;;;;;;;;;;4996729;28;20119;-68
2022/11/25 05:52:02;;;;;;;8.23;5.90;;;;;;;;;;4980071;28;20673;-67
2022/11/25 05:54:32;;;;;;;7.53;5.22;;;;;;;;;;4981749;28;20049;-69
2022/11/25 05:56:57;;;;;;;7.63;5.53;;;;;;;;;;4982330;28;20066;-69
2022/11/25 05:59:25;;;;;;;9.18;5.38;;;;;;;;;;4982651;28;20049;-68
2022/11/25 06:02:04;;;;;;;9.55;5.90;;;;;;;;;;4981625;28;20060;-70
2022/11/25 06:04:31;;;;;;;10.25;6.38;;;;;;;;;;4982665;28;20384;-68
2022/11/25 06:06:56;;;;;;;9.30;5.70;;;;;;;;;;4982320;28;20101;-69
2022/11/25 06:09:22;;;;;;;10.50;6.55;;;;;;;;;;4981628;28;20049;-74
2022/11/25 06:11:48;;;;;;;9.88;7.00;;;;;;;;;;4981127;28;20046;-70
2022/11/25 06:14:16;;;;;;;13.10;7.82;;;;;;;;;;4982154;28;20048;-70
2022/11/25 06:16:42;;;;;;;14.20;7.90;;;;;;;;;;4997319;28;20061;-69
2022/11/25 06:19:30;;;;;;;11.57;7.53;;;;;;;;;;4967165;28;20042;-69
2022/11/25 06:21:56;;;;;;;13.38;8.30;;;;;;;;;;4996849;28;20049;-69
2022/11/25 06:24:23;;;;;;;17.35;8.95;;;;;;;;;;4980048;28;20050;-67
2022/11/25 06:26:55;;;;;;;13.77;8.20;;;;;;;;;;4980854;28;20130;-69
2022/11/25 06:29:20;;;;;;;13.88;7.63;;;;;;;;;;4979456;28;20132;-68
2022/11/25 06:31:49;;;;;;;15.60;7.93;;;;;;;;;;4981224;28;20074;-69
2022/11/25 06:34:40;;;;;;;11.93;8.10;;;;;;;;;;4980383;28;20047;-69
2022/11/25 06:37:08;;;;;;;14.98;7.63;;;;;;;;;;4981021;28;20120;-69
2022/11/25 06:39:34;;;;;;;13.07;7.80;;;;;;;;;;4982773;28;20579;-69
2022/11/25 06:41:59;;;;;;;11.88;7.60;;;;;;;;;;4983078;28;20502;-69
2022/11/25 06:44:25;;;;;;;8.98;6.22;;;;;;;;;;4981889;28;20050;-69
2022/11/25 06:46:51;;;;;;;10.05;6.70;;;;;;;;;;4982374;28;20046;-68
2022/11/25 06:49:16;;;;;;;12.38;7.03;;;;;;;;;;4980944;28;20101;-69
2022/11/25 06:51:41;;;;;;;10.57;6.65;;;;;;;;;;4980726;28;20074;-69
2022/11/25 06:54:09;;;;;;;7.55;6.00;;;;;;;;;;4981506;28;20128;-69
2022/11/25 06:56:35;;;;;;;8.57;6.18;;;;;;;;;;4979894;28;21160;-69
2022/11/25 06:59:02;;;;;;;10.98;6.38;;;;;;;;;;4980224;28;20042;-69
2022/11/25 07:01:29;;;;;;;9.90;6.03;;;;;;;;;;4979745;28;20058;-69
2022/11/25 07:04:00;;;;;;;12.07;8.02;;;;;;;;;;4980512;28;20137;-69
2022/11/25 07:06:25;;;;;;;11.02;6.93;;;;;;;;;;4994880;28;20058;-68
2022/11/25 07:08:51;;;;;;;10.32;6.45;;;;;;;;;;4980308;28;20054;-69
2022/11/25 07:11:22;;;;;;;9.50;6.50;;;;;;;;;;4996827;28;20061;-69
2022/11/25 07:13:51;;;;;;;9.10;6.53;;;;;;;;;;4982040;28;20050;-69
2022/11/25 07:16:17;;;;;;;9.13;6.72;;;;;;;;;;4982260;28;20057;-69
2022/11/25 07:18:42;;;;;;;9.98;6.20;;;;;;;;;;4981589;28;20050;-69
2022/11/25 07:21:11;;;;;;;9.15;5.97;;;;;;;;;;4981292;28;20150;-69
2022/11/25 07:23:37;;;;;;;8.75;6.13;;;;;;;;;;4981741;28;20345;-69
2022/11/25 07:26:14;;;;;;;8.60;6.32;;;;;;;;;;4982597;28;20061;-69
2022/11/25 07:28:40;;;;;;;8.85;6.13;;;;;;;;;;4981472;28;20185;-69
2022/11/25 07:31:08;;;;;;;7.13;5.72;;;;;;;;;;4980751;28;20050;-69
2022/11/25 07:33:34;;;;;;;9.07;5.57;;;;;;;;;;4981848;28;20042;-69
2022/11/25 07:36:05;;;;;;;9.43;5.97;;;;;;;;;;4981840;28;20082;-70
2022/11/25 07:38:31;;;;;;;9.80;5.80;;;;;;;;;;4981909;28;20054;-70
2022/11/25 07:41:06;;;;;;;7.30;4.85;;;;;;;;;;4979603;28;20053;-70
2022/11/25 07:43:32;;;;;;;8.48;5.40;;;;;;;;;;4981558;28;20124;-69
2022/11/25 07:46:10;;;;;;;6.32;4.60;;;;;;;;;;4980058;28;20050;-70
2022/11/25 07:48:35;;;;;;;6.07;4.78;;;;;;;;;;4981687;28;20104;-70
2022/11/25 07:51:01;;;;;;;5.95;4.70;;;;;;;;;;4979872;28;20057;-70
2022/11/25 07:53:26;;;;;;;6.90;4.90;;;;;;;;;;4981447;28;20058;-69
2022/11/25 07:55:52;;;;;;;8.98;5.68;;;;;;;;;;4981557;28;20046;-69
2022/11/25 07:58:17;;;;;;;10.65;6.53;;;;;;;;;;4981605;28;20050;-69
2022/11/25 08:00:43;;;;;;;10.02;6.80;;;;;;;;;;4981381;28;20038;-69
2022/11/25 08:03:08;;;;;;;8.13;5.90;;;;;;;;;;4980325;28;20411;-69
2022/11/25 08:05:33;;;;;;;8.60;6.20;;;;;;;;;;4980792;28;20145;-70
2022/11/25 08:07:59;;;;;;;9.55;6.32;;;;;;;;;;4981438;28;20054;-69
2022/11/25 08:10:24;;;;;;;11.68;7.43;;;;;;;;;;4980985;28;20052;-70
2022/11/25 08:12:49;;;;;;;9.88;5.78;;;;;;;;;;4979948;28;20384;-70
2022/11/25 08:15:15;;;;;;;8.88;7.00;;;;;;;;;;4981280;28;20474;-69
2022/11/25 08:17:41;;;;;;;9.98;6.50;;;;;;;;;;4980773;28;20082;-69
2022/11/25 08:20:06;;;;;;;9.20;5.95;;;;;;;;;;4981476;28;20053;-70
2022/11/25 08:22:32;;;;;;;7.75;5.38;;;;;;;;;;4981371;28;20829;-69
2022/11/25 08:24:57;;;;;;;7.05;5.85;;;;;;;;;;4979989;28;20193;-70
2022/11/25 08:27:23;;;;;;;8.68;6.50;;;;;;;;;;4981082;28;20050;-70
2022/11/25 08:29:48;;;;;;;10.63;6.65;;;;;;;;;;4981406;28;20055;-69
2022/11/25 08:32:14;;;;;;;9.35;5.63;;;;;;;;;;4980988;28;20065;-69
2022/11/25 08:34:39;;;;;;;9.57;6.45;;;;;;;;;;4980218;28;20042;-70
2022/11/25 08:37:07;;;;;;;9.40;5.80;;;;;;;;;;4978972;28;20050;-70
2022/11/25 08:39:33;;;;;;;10.90;6.50;;;;;;;;;;4980548;28;20507;-70
2022/11/25 08:42:02;;;;;;;10.48;6.93;;;;;;;;;;4981443;28;20131;-70
2022/11/25 08:44:28;;;;;;;6.57;5.03;;;;;;;;;;4979612;28;20054;-70
2022/11/25 08:46:54;;;;;;;7.18;5.15;;;;;;;;;;4979235;28;20045;-69
2022/11/25 08:49:20;;;;;;;9.15;5.25;;;;;;;;;;4980068;28;20058;-69
2022/11/25 08:51:46;;;;;;;8.43;5.13;;;;;;;;;;4980824;28;20050;-69
2022/11/25 08:54:13;;;;;;;8.75;5.05;;;;;;;;;;4981126;28;20522;-69
2022/11/25 08:56:38;;;;;;;7.13;4.50;;;;;;;;;;4981428;28;20104;-69
2022/11/25 08:59:04;;;;;;;6.20;4.55;;;;;;;;;;4980713;28;20058;-69
2022/11/25 09:01:30;;;;;;;6.53;4.60;;;;;;;;;;4980504;28;20057;-71
2022/11/25 09:03:57;;;;;;;5.10;3.55;;;;;;;;;;4980703;28;20158;-70
2022/11/25 09:06:24;;;;;;;4.28;3.20;;;;;;;;;;4980955;28;20491;-70
2022/11/25 09:08:50;;;;;;;15.30;5.25;;;;;;;;;;4979309;28;20495;-69
2022/11/25 09:11:16;;;;;;;8.52;5.18;;;;;;;;;;4980346;28;20057;-71
2022/11/25 09:13:41;;;;;;;7.45;5.15;;;;;;;;;;4980020;28;20415;-69
2022/11/25 09:16:08;;;;;;;7.13;5.00;;;;;;;;;;4980931;28;20038;-69
2022/11/25 09:18:35;;;;;;;6.38;4.18;;;;;;;;;;4978746;28;20058;-70
2022/11/25 09:21:09;;;;;;;6.82;4.30;;;;;;;;;;4980646;28;20525;-70
2022/11/25 09:23:35;;;;;;;7.03;5.00;;;;;;;;;;4984552;28;20579;-70
2022/11/25 09:26:00;;;;;;;8.60;5.00;;;;;;;;;;4984604;28;20218;-70
2022/11/25 09:28:26;;;;;;;7.78;4.65;;;;;;;;;;4984592;28;20056;-69
2022/11/25 09:30:52;;;;;;;7.28;5.03;;;;;;;;;;4982543;28;20430;-70
2022/11/25 09:33:18;;;;;;;7.13;4.70;;;;;;;;;;4984278;28;20066;-69
2022/11/25 09:35:44;;;;;;;6.30;4.72;;;;;;;;;;4984804;28;20061;-70
2022/11/25 09:38:09;;;;;;;6.35;3.67;;;;;;;;;;4984904;28;20427;-70
2022/11/25 09:40:50;;;;;;;6.50;4.35;;;;;;;;;;4983025;28;20081;-70
2022/11/25 09:46:52;;;;;;;6.70;4.18;;;;;;;;;;4984023;28;20051;-70
2022/11/25 09:49:44;;;;;;;5.63;3.83;;;;;;;;;;4965595;28;20058;-68
2022/11/25 09:52:35;;;;;;;3.78;3.33;;;;;;;;;;4983391;28;20073;-67
2022/11/25 09:55:22;;;;;;;5.53;3.97;;;;;;;;;;4983174;28;20654;-68
2022/11/25 09:57:54;;;;;;;17.48;4.30;;;;;;;;;;4983663;28;20109;-69
2022/11/25 10:00:20;;;;;;;13.23;4.72;;;;;;;;;;4982074;28;20050;-69
2022/11/25 10:03:03;;;;;;;4.65;3.65;;;;;;;;;;4981214;28;20196;-70
2022/11/25 10:05:35;;;;;;;6.72;3.75;;;;;;;;;;4983526;28;20101;-68
2022/11/25 10:08:15;;;;;;;5.68;3.92;;;;;;;;;;4983773;28;20061;-69
2022/11/25 10:10:47;;;;;;;5.88;4.32;;;;;;;;;;4983408;28;20042;-68
2022/11/25 10:13:21;;;;;;;6.05;3.92;;;;;;;;;;4982475;28;20077;-71
2022/11/25 10:15:49;;;;;;;5.38;4.00;;;;;;;;;;4983692;28;20046;-69
2022/11/25 10:18:28;;;;;;;5.95;4.38;;;;;;;;;;4983517;28;20050;-70
2022/11/25 10:20:54;;;;;;;5.00;3.97;;;;;;;;;;4982629;28;20050;-69
2022/11/25 10:23:35;;;;;;;4.80;3.85;;;;;;;;;;4981425;28;20514;-70
2022/11/25 10:26:12;;;;;;;7.68;4.43;;;;;;;;;;4982140;28;20056;-70
2022/11/25 10:28:40;;;;;;;5.60;4.38;;;;;;;;;;4983270;28;20039;-70
2022/11/25 10:31:06;;;;;;;5.72;4.80;;;;;;;;;;4982114;28;21316;-70
2022/11/25 10:33:36;;;;;;;8.68;4.30;;;;;;;;;;4982995;28;20496;-69
2022/11/25 10:36:02;;;;;;;4.80;3.78;;;;;;;;;;4982812;28;20093;-69
2022/11/25 10:38:41;;;;;;;7.38;4.22;;;;;;;;;;4983078;28;20129;-69
2022/11/25 10:41:13;;;;;;;4.55;4.00;;;;;;;;;;4982652;28;20069;-69
2022/11/25 10:43:41;;;;;;;5.15;3.28;;;;;;;;;;4982923;28;20415;-69
2022/11/25 10:46:13;;;;;;;2.95;2.38;;;;;;;;;;4981218;28;20481;-70
2022/11/25 10:48:53;;;;;;;2.85;2.65;;;;;;;;;;4983190;28;20046;-70
2022/11/25 10:51:44;;;;;;;4.30;2.50;;;;;;;;;;4979800;28;20133;-70
2022/11/25 10:54:34;;;;;;;4.20;2.87;;;;;;;;;;4982414;28;20045;-70
2022/11/25 10:57:14;;;;;;;3.83;3.45;;;;;;;;;;4982087;28;20056;-70
2022/11/25 10:59:41;;;;;;;3.72;3.10;;;;;;;;;;4982343;28;20042;-69
2022/11/25 11:02:30;;;;;;;4.32;3.05;;;;;;;;;;4983083;28;20038;-69
2022/11/25 11:05:04;;;;;;;5.10;2.72;;;;;;;;;;4981725;28;20507;-69
2022/11/25 11:07:33;;;;;;;2.65;2.45;;;;;;;;;;4982428;28;20046;-69
2022/11/25 11:10:14;;;;;;;3.13;2.40;;;;;;;;;;4996325;28;20502;-69
2022/11/25 11:12:53;;;;;;;3.08;2.75;;;;;;;;;;4982509;28;20077;-69
2022/11/25 11:15:31;;;;;;;3.95;2.47;;;;;;;;;;4979607;28;20132;-69
2022/11/25 11:17:59;;;;;;;2.40;2.15;;;;;;;;;;4982362;28;20149;-70
2022/11/25 11:20:30;;;;;;;2.25;2.05;;;;;;;;;;4981366;28;20049;-69
2022/11/25 11:23:09;;;;;;;4.18;2.80;;;;;;;;;;4981917;28;20053;-70
2022/11/25 11:25:40;;;;;;;2.88;2.10;;;;;;;;;;4982478;28;20046;-69
2022/11/25 11:28:33;;;;;;;2.57;2.27;;;;;;;;;;4982444;28;20493;-70
2022/11/25 11:31:16;;;;;;;2.20;2.00;;;;;;;;;;4980141;28;20073;-69
2022/11/25 11:33:55;;;;;;;3.83;2.15;;;;;;;;;;4980819;28;20054;-69
2022/11/25 11:36:45;;;;;;;2.80;2.30;;;;;;;;;;4982547;28;20136;-69
2022/11/25 11:39:25;;;;;;;3.63;2.00;;;;;;;;;;4981467;28;20145;-69
2022/11/25 11:41:59;;;;;;;4.22;2.50;;;;;;;;;;4979322;28;20133;-69
2022/11/25 11:44:45;;;;;;;4.07;2.50;;;;;;;;;;4980709;28;20133;-68
2022/11/25 11:47:19;;;;;;;4.15;2.55;;;;;;;;;;4981331;28;20588;-68
2022/11/25 11:50:22;;;;;;;3.45;2.55;;;;;;;;;;4996353;28;20072;-69
2022/11/25 11:52:57;;;;;;;4.68;2.60;;;;;;;;;;4978282;28;20060;-70
2022/11/25 11:55:28;;;;;;;4.53;2.72;;;;;;;;;;4979957;28;20046;-68
2022/11/25 11:58:18;;;;;;;4.30;3.17;;;;;;;;;;4981658;28;20098;-70
2022/11/25 12:00:51;;;;;;;3.65;2.75;;;;;;;;;;4980818;28;20522;-68
2022/11/25 12:03:21;;;;;;;6.20;3.00;;;;;;;;;;4977909;28;20054;-71
2022/11/25 12:05:53;;;;;;;3.58;3.08;;;;;;;;;;4979409;28;20050;-71
2022/11/25 12:08:39;;;;;;;4.50;2.93;;;;;;;;;;4980957;28;21284;-71
2022/11/25 12:11:18;;;;;;;4.10;3.40;;;;;;;;;;4979316;28;20518;-72
2022/11/25 12:13:59;;;;;;;5.53;3.72;;;;;;;;;;4980917;28;20050;-71
2022/11/25 12:16:35;;;;;;;5.15;3.78;;;;;;;;;;4979413;28;20038;-72
2022/11/25 12:19:18;;;;;;;7.70;4.72;;;;;;;;;;4979554;28;20053;-72
2022/11/25 12:22:06;;;;;;;15.45;4.72;;;;;;;;;;4967774;28;20140;-72
2022/11/25 12:24:43;;;;;;;5.63;4.35;;;;;;;;;;4980329;28;20177;-70
2022/11/25 12:27:20;;;;;;;5.88;4.25;;;;;;;;;;4978790;28;20058;-70
2022/11/25 12:29:57;;;;;;;7.15;3.90;;;;;;;;;;4979085;28;20057;-69
2022/11/25 12:32:58;;;;;;;5.03;3.58;;;;;;;;;;4974985;28;20427;-70
2022/11/25 12:35:39;;;;;;;4.95;3.92;;;;;;;;;;4950032;28;20454;-70
2022/11/25 12:38:36;;;;;;;6.60;3.40;;;;;;;;;;4976083;28;20112;-69
2022/11/25 12:41:07;;;;;;;9.13;3.55;;;;;;;;;;4977434;28;20046;-71
2022/11/25 12:43:47;;;;;;;3.45;3.15;;;;;;;;;;4977481;28;20081;-68
2022/11/25 12:46:28;;;;;;;3.33;3.00;;;;;;;;;;4980944;28;20073;-69
2022/11/25 12:48:56;;;;;;;3.70;2.90;;;;;;;;;;4994162;28;20108;-69
2022/11/25 12:51:38;;;;;;;5.57;3.05;;;;;;;;;;4980509;28;20062;-68
2022/11/25 12:54:13;;;;;;;2.50;2.10;;;;;;;;;;4979698;28;20097;-69
2022/11/25 12:56:59;;;;;;;2.50;2.30;;;;;;;;;;4984208;28;20105;-69
2022/11/25 13:00:09;;;;;;;3.33;2.17;;;;;;;;;;4980694;28;20050;-69
2022/11/25 13:02:54;;;;;;;2.42;2.22;;;;;;;;;;4997500;28;20073;-69
2022/11/25 13:05:47;;;;;;;4.10;2.75;;;;;;;;;;4981180;28;21245;-69
2022/11/25 13:08:49;;;;;;;3.17;2.38;;;;;;;;;;4983046;28;20050;-69
2022/11/25 13:11:32;;;;;;;7.80;2.45;;;;;;;;;;4982571;28;20053;-69
2022/11/25 13:14:04;;;;;;;5.25;2.35;;;;;;;;;;4984001;28;20050;-69
2022/11/25 13:16:30;;;;;;;3.28;2.40;;;;;;;;;;4983826;28;20185;-69
2022/11/25 13:18:56;;;;;;;10.05;3.10;;;;;;;;;;4982413;28;20054;-68
2022/11/25 13:21:23;;;;;;;4.22;2.10;;;;;;;;;;4981442;28;20082;-69
2022/11/25 13:23:55;;;;;;;3.00;2.22;;;;;;;;;;4983716;28;20446;-69
2022/11/25 13:26:31;;;;;;;4.75;2.13;;;;;;;;;;4984538;28;20100;-68
2022/11/25 13:29:20;;;;;;;10.77;2.10;;;;;;;;;;4984159;28;20450;-68
2022/11/25 13:32:00;;;;;;;3.42;2.10;;;;;;;;;;4952563;28;20526;-70
2022/11/25 13:34:34;;;;;;;4.13;2.20;;;;;;;;;;4979852;28;20100;-72
2022/11/25 13:37:01;;;;;;;3.45;2.40;;;;;;;;;;4982165;28;20451;-71
2022/11/25 13:39:30;;;;;;;3.53;2.20;;;;;;;;;;4982551;28;20069;-71
2022/11/25 13:42:20;;;;;;;2.95;1.92;;;;;;;;;;4982754;28;20046;-68
2022/11/25 13:44:57;;;;;;;3.13;2.40;;;;;;;;;;4981936;28;20960;-72
2022/11/25 13:47:37;;;;;;;14.07;3.47;;;;;;;;;;4979601;28;20050;-72
2022/11/25 13:50:17;;;;;;;4.97;2.53;;;;;;;;;;4982204;28;20046;-68
2022/11/25 13:52:47;;;;;;;3.95;2.42;;;;;;;;;;4983109;28;20050;-68
2022/11/25 13:55:15;;;;;;;3.25;2.47;;;;;;;;;;4980057;28;20093;-68
2022/11/25 13:57:45;;;;;;;10.98;2.70;;;;;;;;;;4981938;28;20061;-69
2022/11/25 14:00:13;;;;;;;3.05;2.63;;;;;;;;;;4981613;28;20396;-68
2022/11/25 14:02:48;;;;;;;4.00;2.47;;;;;;;;;;4983100;28;20137;-71
2022/11/25 14:05:32;;;;;;;3.05;2.60;;;;;;;;;;4981479;28;20050;-69
2022/11/25 14:08:19;;;;;;;3.80;2.58;;;;;;;;;;4982241;28;20046;-71
2022/11/25 14:11:09;;;;;;;3.03;2.50;;;;;;;;;;4982445;28;20459;-68
2022/11/25 14:13:56;;;;;;;2.53;2.25;;;;;;;;;;4980613;28;20046;-68
2022/11/25 14:16:47;;;;;;;5.85;2.58;;;;;;;;;;4996958;28;20038;-70
2022/11/25 14:19:18;;;;;;;3.65;2.58;;;;;;;;;;4976686;28;20062;-72
2022/11/25 14:21:51;;;;;;;3.47;2.78;;;;;;;;;;4980144;28;20515;-71
2022/11/25 14:24:39;;;;;;;3.03;2.45;;;;;;;;;;4981741;28;20414;-71
2022/11/25 14:27:13;;;;;;;3.75;2.50;;;;;;;;;;4980143;28;20057;-71
2022/11/25 14:29:49;;;;;;;4.03;2.80;;;;;;;;;;4978575;28;20046;-72
2022/11/25 14:32:21;;;;;;;3.78;2.65;;;;;;;;;;4981270;28;20085;-68
2022/11/25 14:34:53;;;;;;;4.43;3.03;;;;;;;;;;4980107;28;20510;-70
2022/11/25 14:37:21;;;;;;;;;;;;;;;;;;4979417;28;20122;-71
2022/11/25 14:39:54;;;;;;;8.45;3.00;;;;;;;;;;4981150;28;19926;-71
2022/11/25 14:42:22;;;;;;;6.03;3.70;;;;;;;;;;4981315;28;20058;-70
2022/11/25 14:44:55;;;;;;;2.85;2.58;;;;;;;;;;4980746;28;20149;-70
2022/11/25 14:47:22;;;;;;;10.40;3.08;;;;;;;;;;4981291;28;20050;-68
2022/11/25 14:49:51;;;;;;;4.10;2.90;;;;;;;;;;4979581;28;20050;-71
2022/11/25 14:52:21;;;;;;;9.15;3.15;;;;;;;;;;4981573;28;20050;-70
2022/11/25 14:54:47;;;;;;;3.60;3.00;;;;;;;;;;4981010;28;20161;-71
2022/11/25 14:57:12;;;;;;;4.35;3.42;;;;;;;;;;4979995;28;20123;-70
2022/11/25 14:59:39;;;;;;;7.15;3.00;;;;;;;;;;4976976;28;20695;-72
2022/11/25 15:02:04;;;;;;;6.18;3.22;;;;;;;;;;4979130;28;20042;-72
2022/11/25 15:04:31;;;;;;;5.40;3.10;;;;;;;;;;4978751;28;20067;-71
2022/11/25 15:07:01;;;;;;;5.55;3.35;;;;;;;;;;4979055;28;20054;-72
2022/11/25 15:09:29;;;;;;;13.55;7.57;;;;;;;;;;4981104;28;20054;-68